createdAt,value
2018-12-17T00:00:26.972Z,0.00
2018-12-17T00:01:26.959Z,0.00
2018-12-17T00:02:26.953Z,0.00
2018-12-17T00:03:26.940Z,0.00
2018-12-17T00:04:26.925Z,0.00
2018-12-17T00:05:26.915Z,0.00
2018-12-17T00:06:26.904Z,0.00
2018-12-17T00:07:26.892Z,0.00
2018-12-17T00:08:31.963Z,0.00
2018-12-17T00:09:26.870Z,0.00
2018-12-17T00:10:26.905Z,0.00
2018-12-17T00:11:26.848Z,0.00
2018-12-17T00:12:26.841Z,0.00
2018-12-17T00:13:26.828Z,0.00
2018-12-17T00:14:26.813Z,0.00
2018-12-17T00:15:26.803Z,0.00
2018-12-17T00:16:26.789Z,0.00
2018-12-17T00:17:26.780Z,0.00
2018-12-17T00:18:26.768Z,0.00
2018-12-17T00:19:26.758Z,0.00
2018-12-17T00:20:26.745Z,0.00
2018-12-17T00:21:26.741Z,0.00
2018-12-17T00:22:26.731Z,0.00
2018-12-17T00:23:26.713Z,0.00
2018-12-17T00:24:26.704Z,0.00
2018-12-17T00:25:26.696Z,0.00
2018-12-17T00:26:26.683Z,0.00
2018-12-17T00:27:26.674Z,0.00
2018-12-17T00:28:26.662Z,0.00
2018-12-17T00:29:26.647Z,0.00
2018-12-17T00:30:26.641Z,0.00
2018-12-17T00:31:26.642Z,0.00
2018-12-17T00:32:26.645Z,0.00
2018-12-17T00:33:26.652Z,0.00
2018-12-17T00:34:26.594Z,0.00
2018-12-17T00:35:26.595Z,0.00
2018-12-17T00:36:26.598Z,0.00
2018-12-17T00:37:26.602Z,0.00
2018-12-17T00:38:26.547Z,0.00
2018-12-17T00:39:26.535Z,0.00
2018-12-17T00:40:26.525Z,0.00
2018-12-17T00:41:26.513Z,0.00
2018-12-17T00:42:26.507Z,0.00
2018-12-17T00:43:26.493Z,0.00
2018-12-17T00:44:26.478Z,0.00
2018-12-17T00:45:26.468Z,0.00
2018-12-17T00:46:26.456Z,0.00
2018-12-17T00:47:26.459Z,0.00
2018-12-17T00:48:26.434Z,0.00
2018-12-17T00:49:26.432Z,0.00
2018-12-17T00:50:26.411Z,0.00
2018-12-17T00:51:26.400Z,0.00
2018-12-17T00:52:26.388Z,0.00
2018-12-17T00:53:26.379Z,0.00
2018-12-17T00:54:26.370Z,0.00
2018-12-17T00:55:26.356Z,0.00
2018-12-17T00:56:26.347Z,0.00
2018-12-17T00:57:26.333Z,0.00
2018-12-17T00:58:26.321Z,0.00
2018-12-17T00:59:26.315Z,0.00
2018-12-17T01:00:26.300Z,0.00
2018-12-17T01:01:26.288Z,0.00
2018-12-17T01:02:26.280Z,0.00
2018-12-17T01:03:26.267Z,0.00
2018-12-17T01:04:26.255Z,0.00
2018-12-17T01:05:26.245Z,0.00
2018-12-17T01:06:26.234Z,0.00
2018-12-17T01:07:26.223Z,0.00
2018-12-17T01:08:26.211Z,0.00
2018-12-17T01:09:26.200Z,0.00
2018-12-17T01:10:26.192Z,0.00
2018-12-17T01:11:26.179Z,0.00
2018-12-17T01:12:26.174Z,0.00
2018-12-17T01:13:26.161Z,0.00
2018-12-17T01:14:26.151Z,0.00
2018-12-17T01:15:26.136Z,0.00
2018-12-17T01:16:26.614Z,0.00
2018-12-17T01:17:26.156Z,0.00
2018-12-17T01:18:26.104Z,0.00
2018-12-17T01:19:26.092Z,0.00
2018-12-17T01:20:26.085Z,0.00
2018-12-17T01:21:26.072Z,0.00
2018-12-17T01:22:26.059Z,0.00
2018-12-17T01:23:26.047Z,0.00
2018-12-17T01:24:26.034Z,0.00
2018-12-17T01:25:26.022Z,0.00
2018-12-17T01:26:26.012Z,0.00
2018-12-17T01:27:26.000Z,0.00
2018-12-17T01:28:25.993Z,0.00
2018-12-17T01:29:25.978Z,0.00
2018-12-17T01:30:25.967Z,0.00
2018-12-17T01:31:25.957Z,0.00
2018-12-17T01:32:25.946Z,0.00
2018-12-17T01:33:25.939Z,0.00
2018-12-17T01:34:25.938Z,0.00
2018-12-17T01:35:25.910Z,0.00
2018-12-17T01:36:25.901Z,0.00
2018-12-17T01:37:25.889Z,0.00
2018-12-17T01:38:25.881Z,0.00
2018-12-17T01:39:25.867Z,0.00
2018-12-17T01:40:25.856Z,0.00
2018-12-17T01:41:25.847Z,0.00
2018-12-17T01:42:25.845Z,0.00
2018-12-17T01:43:25.823Z,0.00
2018-12-17T01:44:25.817Z,0.00
2018-12-17T01:45:25.803Z,0.00
2018-12-17T01:46:25.799Z,0.00
2018-12-17T01:47:25.779Z,0.00
2018-12-17T01:48:25.772Z,0.00
2018-12-17T01:49:25.757Z,0.00
2018-12-17T01:50:25.745Z,0.00
2018-12-17T01:51:25.734Z,0.00
2018-12-17T01:52:25.722Z,0.00
2018-12-17T01:53:25.711Z,0.00
2018-12-17T01:54:25.705Z,0.00
2018-12-17T01:55:25.691Z,0.00
2018-12-17T01:56:25.677Z,0.00
2018-12-17T01:57:25.666Z,0.00
2018-12-17T01:58:29.181Z,0.00
2018-12-17T01:59:25.643Z,0.00
2018-12-17T02:00:25.634Z,0.00
2018-12-17T02:01:25.624Z,0.00
2018-12-17T02:02:25.609Z,0.00
2018-12-17T02:03:25.597Z,0.00
2018-12-17T02:04:25.587Z,0.00
2018-12-17T02:05:25.579Z,0.00
2018-12-17T02:06:25.568Z,0.00
2018-12-17T02:07:25.557Z,0.00
2018-12-17T02:08:25.545Z,0.00
2018-12-17T02:09:25.626Z,0.00
2018-12-17T02:10:25.524Z,0.00
2018-12-17T02:11:25.511Z,0.00
2018-12-17T02:12:25.500Z,0.00
2018-12-17T02:13:25.488Z,0.00
2018-12-17T02:14:25.544Z,0.00
2018-12-17T02:15:25.469Z,0.00
2018-12-17T02:16:25.461Z,0.00
2018-12-17T02:17:25.446Z,0.00
2018-12-17T02:18:25.433Z,0.00
2018-12-17T02:19:25.441Z,0.00
2018-12-17T02:20:25.417Z,0.00
2018-12-17T02:21:25.405Z,0.00
2018-12-17T02:22:25.389Z,0.00
2018-12-17T02:23:25.386Z,0.00
2018-12-17T02:24:25.365Z,0.00
2018-12-17T02:25:25.357Z,0.00
2018-12-17T02:26:25.349Z,0.00
2018-12-17T02:27:25.337Z,0.00
2018-12-17T02:28:25.323Z,0.00
2018-12-17T02:29:25.312Z,0.00
2018-12-17T02:30:25.309Z,0.00
2018-12-17T02:31:25.295Z,0.00
2018-12-17T02:32:25.279Z,0.00
2018-12-17T02:33:25.267Z,0.00
2018-12-17T02:34:25.257Z,0.00
2018-12-17T02:35:25.339Z,0.00
2018-12-17T02:36:25.235Z,0.00
2018-12-17T02:37:25.225Z,0.00
2018-12-17T02:38:25.211Z,0.00
2018-12-17T02:39:25.203Z,0.00
2018-12-17T02:40:25.190Z,0.00
2018-12-17T02:41:25.184Z,0.00
2018-12-17T02:42:25.169Z,0.00
2018-12-17T02:43:25.161Z,0.00
2018-12-17T02:44:25.147Z,0.00
2018-12-17T02:45:25.136Z,0.00
2018-12-17T02:46:25.131Z,0.00
2018-12-17T02:47:25.119Z,0.00
2018-12-17T02:48:25.108Z,0.00
2018-12-17T02:49:25.098Z,0.00
2018-12-17T02:50:25.082Z,0.00
2018-12-17T02:51:25.067Z,0.00
2018-12-17T02:52:25.056Z,0.00
2018-12-17T02:53:25.045Z,0.00
2018-12-17T02:54:25.037Z,0.00
2018-12-17T02:55:25.025Z,0.00
2018-12-17T02:56:25.014Z,0.00
2018-12-17T02:57:25.002Z,0.00
2018-12-17T02:58:24.993Z,0.00
2018-12-17T02:59:24.978Z,0.00
2018-12-17T03:00:24.982Z,0.00
2018-12-17T03:01:24.956Z,0.00
2018-12-17T03:02:24.944Z,0.00
2018-12-17T03:03:24.934Z,0.00
2018-12-17T03:04:24.923Z,0.00
2018-12-17T03:05:24.911Z,0.00
2018-12-17T03:06:24.903Z,0.00
2018-12-17T03:07:24.888Z,0.00
2018-12-17T03:08:24.875Z,0.00
2018-12-17T03:09:24.867Z,0.00
2018-12-17T03:10:24.864Z,0.00
2018-12-17T03:11:24.848Z,0.00
2018-12-17T03:12:24.838Z,0.00
2018-12-17T03:13:24.819Z,0.00
2018-12-17T03:14:24.812Z,0.00
2018-12-17T03:15:24.799Z,0.00
2018-12-17T03:16:24.786Z,0.00
2018-12-17T03:17:24.778Z,0.00
2018-12-17T03:18:24.768Z,0.00
2018-12-17T03:19:24.756Z,0.00
2018-12-17T03:20:24.741Z,0.00
2018-12-17T03:21:24.730Z,0.00
2018-12-17T03:22:24.720Z,0.00
2018-12-17T03:23:24.709Z,0.00
2018-12-17T03:24:24.697Z,0.00
2018-12-17T03:25:24.691Z,0.00
2018-12-17T03:26:24.675Z,0.00
2018-12-17T03:27:24.664Z,0.00
2018-12-17T03:28:24.653Z,0.00
2018-12-17T03:29:24.645Z,0.00
2018-12-17T03:30:24.632Z,0.00
2018-12-17T03:31:24.623Z,0.00
2018-12-17T03:32:24.623Z,0.00
2018-12-17T03:33:24.598Z,0.00
2018-12-17T03:34:24.586Z,0.00
2018-12-17T03:35:24.574Z,0.00
2018-12-17T03:36:24.571Z,0.00
2018-12-17T03:37:24.552Z,0.00
2018-12-17T03:38:24.542Z,0.00
2018-12-17T03:39:24.537Z,0.00
2018-12-17T03:40:24.519Z,0.00
2018-12-17T03:41:24.509Z,0.00
2018-12-17T03:42:24.499Z,0.00
2018-12-17T03:43:24.484Z,0.00
2018-12-17T03:44:24.474Z,0.00
2018-12-17T03:45:24.463Z,0.00
2018-12-17T03:46:24.451Z,0.00
2018-12-17T03:47:24.449Z,0.00
2018-12-17T03:48:24.429Z,0.00
2018-12-17T03:49:24.417Z,0.00
2018-12-17T03:50:24.407Z,0.00
2018-12-17T03:51:24.395Z,0.00
2018-12-17T03:52:24.386Z,0.00
2018-12-17T03:53:24.374Z,0.00
2018-12-17T03:54:24.362Z,0.00
2018-12-17T03:55:24.360Z,0.00
2018-12-17T03:56:24.341Z,0.00
2018-12-17T03:57:24.328Z,0.00
2018-12-17T03:58:24.318Z,0.00
2018-12-17T03:59:24.409Z,0.00
2018-12-17T04:00:24.314Z,0.00
2018-12-17T04:01:24.289Z,0.00
2018-12-17T04:02:24.280Z,0.00
2018-12-17T04:03:24.263Z,0.00
2018-12-17T04:04:24.252Z,0.00
2018-12-17T04:05:24.251Z,0.00
2018-12-17T04:06:24.227Z,0.00
2018-12-17T04:07:24.218Z,0.00
2018-12-17T04:08:24.205Z,0.00
2018-12-17T04:09:24.197Z,0.00
2018-12-17T04:10:24.187Z,0.00
2018-12-17T04:11:24.174Z,0.00
2018-12-17T04:12:24.162Z,0.00
2018-12-17T04:13:24.150Z,0.00
2018-12-17T04:14:24.138Z,0.00
2018-12-17T04:15:24.131Z,0.00
2018-12-17T04:16:24.116Z,0.00
2018-12-17T04:17:24.106Z,0.00
2018-12-17T04:18:24.095Z,0.00
2018-12-17T04:19:24.083Z,0.00
2018-12-17T04:20:24.079Z,0.00
2018-12-17T04:21:24.061Z,0.00
2018-12-17T04:22:24.049Z,0.00
2018-12-17T04:23:24.039Z,0.00
2018-12-17T04:24:24.030Z,0.00
2018-12-17T04:25:24.022Z,0.00
2018-12-17T04:26:24.006Z,0.00
2018-12-17T04:27:23.998Z,0.00
2018-12-17T04:28:23.988Z,0.00
2018-12-17T04:29:23.974Z,0.00
2018-12-17T04:30:23.962Z,0.00
2018-12-17T04:31:23.950Z,0.00
2018-12-17T04:32:23.939Z,0.00
2018-12-17T04:33:23.929Z,0.00
2018-12-17T04:34:23.919Z,0.00
2018-12-17T04:35:23.908Z,0.00
2018-12-17T04:36:23.901Z,0.00
2018-12-17T04:37:23.893Z,0.00
2018-12-17T04:38:23.881Z,0.00
2018-12-17T04:39:23.866Z,0.00
2018-12-17T04:40:23.858Z,0.00
2018-12-17T04:41:23.841Z,0.00
2018-12-17T04:42:23.835Z,0.00
2018-12-17T04:43:23.824Z,0.00
2018-12-17T04:44:23.810Z,0.00
2018-12-17T04:45:23.803Z,0.00
2018-12-17T04:46:23.786Z,0.00
2018-12-17T04:47:23.778Z,0.00
2018-12-17T04:48:23.768Z,0.00
2018-12-17T04:49:23.752Z,0.00
2018-12-17T04:50:23.740Z,0.00
2018-12-17T04:51:23.730Z,0.00
2018-12-17T04:52:23.722Z,0.00
2018-12-17T04:53:23.710Z,0.00
2018-12-17T04:54:23.696Z,0.00
2018-12-17T04:55:23.687Z,0.00
2018-12-17T04:56:23.676Z,0.00
2018-12-17T04:57:23.663Z,0.00
2018-12-17T04:58:23.653Z,0.00
2018-12-17T04:59:23.649Z,0.00
2018-12-17T05:00:23.636Z,0.00
2018-12-17T05:01:23.629Z,0.00
2018-12-17T05:02:23.607Z,0.00
2018-12-17T05:03:23.595Z,0.00
2018-12-17T05:04:23.584Z,0.00
2018-12-17T05:05:23.572Z,0.00
2018-12-17T05:06:23.570Z,0.00
2018-12-17T05:07:23.554Z,0.00
2018-12-17T05:08:23.540Z,0.00
2018-12-17T05:09:23.530Z,56.00
2018-12-17T05:10:23.518Z,72.00
2018-12-17T05:11:23.508Z,72.00
2018-12-17T05:12:23.497Z,72.00
2018-12-17T05:13:23.487Z,72.00
2018-12-17T05:14:23.479Z,76.00
2018-12-17T05:15:23.463Z,76.00
2018-12-17T05:16:23.453Z,76.00
2018-12-17T05:17:23.440Z,76.00
2018-12-17T05:18:23.427Z,76.00
2018-12-17T05:19:23.419Z,76.00
2018-12-17T05:20:23.407Z,76.00
2018-12-17T05:21:23.394Z,76.00
2018-12-17T05:22:23.385Z,76.00
2018-12-17T05:23:23.373Z,72.00
2018-12-17T05:24:23.364Z,76.00
2018-12-17T05:25:23.353Z,76.00
2018-12-17T05:26:23.340Z,76.00
2018-12-17T05:27:23.328Z,0.00
2018-12-17T05:28:23.320Z,0.00
2018-12-17T05:29:23.306Z,0.00
2018-12-17T05:30:23.297Z,0.00
2018-12-17T05:31:23.284Z,0.00
2018-12-17T05:32:23.274Z,0.00
2018-12-17T05:33:23.261Z,0.00
2018-12-17T05:34:23.250Z,0.00
2018-12-17T05:35:23.240Z,0.00
2018-12-17T05:36:23.234Z,0.00
2018-12-17T05:37:23.217Z,0.00
2018-12-17T05:38:23.206Z,0.00
2018-12-17T05:39:23.194Z,0.00
2018-12-17T05:40:23.183Z,0.00
2018-12-17T05:41:23.173Z,0.00
2018-12-17T05:42:23.162Z,0.00
2018-12-17T05:43:23.150Z,0.00
2018-12-17T05:44:23.139Z,0.00
2018-12-17T05:45:23.136Z,0.00
2018-12-17T05:46:23.116Z,0.00
2018-12-17T05:47:23.109Z,0.00
2018-12-17T05:48:23.093Z,0.00
2018-12-17T05:49:23.082Z,0.00
2018-12-17T05:50:23.074Z,0.00
2018-12-17T05:51:23.061Z,0.00
2018-12-17T05:52:23.054Z,0.00
2018-12-17T05:53:23.064Z,0.00
2018-12-17T05:54:23.031Z,0.00
2018-12-17T05:55:23.017Z,0.00
2018-12-17T05:56:23.009Z,0.00
2018-12-17T05:57:23.044Z,0.00
2018-12-17T05:58:22.983Z,0.00
2018-12-17T05:59:28.550Z,0.00
2018-12-17T06:00:22.960Z,0.00
2018-12-17T06:01:22.949Z,0.00
2018-12-17T06:02:22.941Z,0.00
2018-12-17T06:03:22.931Z,0.00
2018-12-17T06:04:22.916Z,0.00
2018-12-17T06:05:22.906Z,0.00
2018-12-17T06:06:22.894Z,0.00
2018-12-17T06:07:22.885Z,0.00
2018-12-17T06:08:22.875Z,0.00
2018-12-17T06:09:22.869Z,0.00
2018-12-17T06:10:22.853Z,0.00
2018-12-17T06:11:22.848Z,0.00
2018-12-17T06:12:22.831Z,0.00
2018-12-17T06:13:22.817Z,0.00
2018-12-17T06:14:22.808Z,0.00
2018-12-17T06:15:22.796Z,0.00
2018-12-17T06:16:22.794Z,0.00
2018-12-17T06:17:22.799Z,0.00
2018-12-17T06:18:22.810Z,0.00
2018-12-17T06:19:22.814Z,0.00
2018-12-17T06:20:22.750Z,0.00
2018-12-17T06:21:22.748Z,0.00
2018-12-17T06:22:22.755Z,0.00
2018-12-17T06:23:22.755Z,0.00
2018-12-17T06:24:22.695Z,0.00
2018-12-17T06:25:22.762Z,0.00
2018-12-17T06:26:22.679Z,0.00
2018-12-17T06:27:22.664Z,0.00
2018-12-17T06:28:22.650Z,0.00
2018-12-17T06:29:22.645Z,0.00
2018-12-17T06:30:22.628Z,0.00
2018-12-17T06:31:22.619Z,0.00
2018-12-17T06:32:22.609Z,0.00
2018-12-17T06:33:22.604Z,0.00
2018-12-17T06:34:22.583Z,0.00
2018-12-17T06:35:22.575Z,0.00
2018-12-17T06:36:22.561Z,4.00
2018-12-17T06:37:22.550Z,4.00
2018-12-17T06:38:22.539Z,4.00
2018-12-17T06:39:22.528Z,4.00
2018-12-17T06:40:22.516Z,4.00
2018-12-17T06:41:22.515Z,4.00
2018-12-17T06:42:22.495Z,0.00
2018-12-17T06:43:22.489Z,4.00
2018-12-17T06:44:22.475Z,4.00
2018-12-17T06:45:22.466Z,4.00
2018-12-17T06:46:22.451Z,8.00
2018-12-17T06:47:22.439Z,8.00
2018-12-17T06:48:22.431Z,8.00
2018-12-17T06:49:22.422Z,8.00
2018-12-17T06:50:22.407Z,8.00
2018-12-17T06:51:22.400Z,12.00
2018-12-17T06:52:22.385Z,12.00
2018-12-17T06:53:22.374Z,16.00
2018-12-17T06:54:22.362Z,16.00
2018-12-17T06:55:22.351Z,20.00
2018-12-17T06:56:22.341Z,24.00
2018-12-17T06:57:22.330Z,24.00
2018-12-17T06:58:22.319Z,32.00
2018-12-17T06:59:22.312Z,32.00
2018-12-17T07:00:22.297Z,36.00
2018-12-17T07:01:22.291Z,44.00
2018-12-17T07:02:22.275Z,48.00
2018-12-17T07:03:22.262Z,52.00
2018-12-17T07:04:22.257Z,56.00
2018-12-17T07:05:22.241Z,64.00
2018-12-17T07:06:22.229Z,72.00
2018-12-17T07:07:22.223Z,80.00
2018-12-17T07:08:22.208Z,88.00
2018-12-17T07:09:22.203Z,96.00
2018-12-17T07:10:22.188Z,104.00
2018-12-17T07:11:22.182Z,112.00
2018-12-17T07:12:22.174Z,112.00
2018-12-17T07:13:22.161Z,116.00
2018-12-17T07:14:22.152Z,124.00
2018-12-17T07:15:22.140Z,128.00
2018-12-17T07:16:22.117Z,132.00
2018-12-17T07:17:22.107Z,136.00
2018-12-17T07:18:22.095Z,140.00
2018-12-17T07:19:22.086Z,140.00
2018-12-17T07:20:22.076Z,156.00
2018-12-17T07:21:22.068Z,176.00
2018-12-17T07:22:22.053Z,232.00
2018-12-17T07:23:22.041Z,268.00
2018-12-17T07:24:22.030Z,268.00
2018-12-17T07:25:22.019Z,288.00
2018-12-17T07:26:22.007Z,308.00
2018-12-17T07:27:22.000Z,320.00
2018-12-17T07:28:21.992Z,324.00
2018-12-17T07:29:21.979Z,336.00
2018-12-17T07:30:21.967Z,340.00
2018-12-17T07:31:21.954Z,352.00
2018-12-17T07:32:21.942Z,364.00
2018-12-17T07:33:21.931Z,380.00
2018-12-17T07:34:21.919Z,396.00
2018-12-17T07:35:21.908Z,404.00
2018-12-17T07:36:21.901Z,400.00
2018-12-17T07:37:21.886Z,392.00
2018-12-17T07:38:21.875Z,396.00
2018-12-17T07:39:21.864Z,408.00
2018-12-17T07:40:21.855Z,424.00
2018-12-17T07:41:21.845Z,440.00
2018-12-17T07:42:21.835Z,456.00
2018-12-17T07:43:21.819Z,484.00
2018-12-17T07:44:21.808Z,512.00
2018-12-17T07:45:21.808Z,548.00
2018-12-17T07:46:21.785Z,592.00
2018-12-17T07:47:21.775Z,608.00
2018-12-17T07:48:21.765Z,628.00
2018-12-17T07:49:21.752Z,660.00
2018-12-17T07:50:21.743Z,708.00
2018-12-17T07:51:21.732Z,752.00
2018-12-17T07:52:21.727Z,772.00
2018-12-17T07:53:21.712Z,796.00
2018-12-17T07:54:21.696Z,796.00
2018-12-17T07:55:21.686Z,808.00
2018-12-17T07:56:21.676Z,816.00
2018-12-17T07:57:21.665Z,852.00
2018-12-17T07:58:21.658Z,876.00
2018-12-17T07:59:21.642Z,920.00
2018-12-17T08:00:21.636Z,952.00
2018-12-17T08:01:21.623Z,1028.00
2018-12-17T08:02:21.611Z,1128.00
2018-12-17T08:03:21.601Z,1152.00
2018-12-17T08:04:21.592Z,1132.00
2018-12-17T08:05:21.581Z,1176.00
2018-12-17T08:06:21.567Z,1284.00
2018-12-17T08:07:21.554Z,1200.00
2018-12-17T08:08:21.549Z,1104.00
2018-12-17T08:09:21.532Z,1096.00
2018-12-17T08:10:21.526Z,1136.00
2018-12-17T08:11:21.528Z,1112.00
2018-12-17T08:12:21.498Z,1044.00
2018-12-17T08:13:21.493Z,1036.00
2018-12-17T08:14:21.478Z,1036.00
2018-12-17T08:15:21.491Z,1120.00
2018-12-17T08:16:21.458Z,1204.00
2018-12-17T08:17:21.445Z,1240.00
2018-12-17T08:18:21.445Z,1272.00
2018-12-17T08:19:21.433Z,1264.00
2018-12-17T08:20:21.411Z,1232.00
2018-12-17T08:21:21.400Z,1248.00
2018-12-17T08:22:21.391Z,1324.00
2018-12-17T08:23:21.377Z,1348.00
2018-12-17T08:24:21.365Z,1372.00
2018-12-17T08:25:21.354Z,1368.00
2018-12-17T08:26:21.348Z,1364.00
2018-12-17T08:27:21.347Z,1488.00
2018-12-17T08:28:21.325Z,1556.00
2018-12-17T08:29:21.323Z,1628.00
2018-12-17T08:30:21.301Z,1724.00
2018-12-17T08:31:21.295Z,1744.00
2018-12-17T08:32:21.291Z,1832.00
2018-12-17T08:33:21.268Z,1800.00
2018-12-17T08:34:21.253Z,1720.00
2018-12-17T08:35:21.245Z,1760.00
2018-12-17T08:36:21.236Z,1828.00
2018-12-17T08:37:21.228Z,1804.00
2018-12-17T08:38:21.211Z,1856.00
2018-12-17T08:39:21.196Z,1892.00
2018-12-17T08:40:21.194Z,1960.00
2018-12-17T08:41:21.177Z,2124.00
2018-12-17T08:42:21.166Z,2040.00
2018-12-17T08:43:21.217Z,2052.00
2018-12-17T08:44:21.141Z,2084.00
2018-12-17T08:45:21.146Z,1944.00
2018-12-17T08:46:21.125Z,1844.00
2018-12-17T08:47:21.327Z,1932.00
2018-12-17T08:48:21.103Z,1912.00
2018-12-17T08:49:21.087Z,1812.00
2018-12-17T08:50:21.077Z,1840.00
2018-12-17T08:51:23.076Z,1816.00
2018-12-17T08:52:21.056Z,1748.00
2018-12-17T08:53:21.041Z,1768.00
2018-12-17T08:54:21.041Z,1872.00
2018-12-17T08:55:21.034Z,1884.00
2018-12-17T08:56:21.017Z,1828.00
2018-12-17T08:57:20.998Z,1888.00
2018-12-17T08:58:20.998Z,1840.00
2018-12-17T08:59:20.971Z,1772.00
2018-12-17T09:00:20.958Z,1692.00
2018-12-17T09:01:20.957Z,1672.00
2018-12-17T09:02:20.935Z,1696.00
2018-12-17T09:03:20.923Z,1712.00
2018-12-17T09:04:20.925Z,1676.00
2018-12-17T09:05:20.900Z,1656.00
2018-12-17T09:06:20.889Z,1728.00
2018-12-17T09:07:20.902Z,1800.00
2018-12-17T09:08:20.866Z,1816.00
2018-12-17T09:09:20.859Z,1764.00
2018-12-17T09:10:20.843Z,1812.00
2018-12-17T09:11:20.835Z,1876.00
2018-12-17T09:12:20.833Z,1808.00
2018-12-17T09:13:20.812Z,1720.00
2018-12-17T09:14:20.798Z,1672.00
2018-12-17T09:15:20.785Z,1664.00
2018-12-17T09:16:20.776Z,1808.00
2018-12-17T09:17:20.765Z,2100.00
2018-12-17T09:18:20.756Z,2388.00
2018-12-17T09:19:20.750Z,2640.00
2018-12-17T09:20:20.727Z,2800.00
2018-12-17T09:21:20.723Z,2944.00
2018-12-17T09:22:20.706Z,3032.00
2018-12-17T09:23:20.694Z,2960.00
2018-12-17T09:24:20.685Z,3136.00
2018-12-17T09:25:20.675Z,3156.00
2018-12-17T09:26:20.660Z,3024.00
2018-12-17T09:27:20.656Z,2948.00
2018-12-17T09:28:20.641Z,2820.00
2018-12-17T09:29:20.629Z,2824.00
2018-12-17T09:30:20.618Z,2928.00
2018-12-17T09:31:20.604Z,2972.00
2018-12-17T09:32:20.596Z,3004.00
2018-12-17T09:33:20.581Z,2964.00
2018-12-17T09:34:20.571Z,2852.00
2018-12-17T09:35:20.563Z,2728.00
2018-12-17T09:36:20.548Z,2708.00
2018-12-17T09:37:20.538Z,2784.00
2018-12-17T09:38:20.522Z,2936.00
2018-12-17T09:39:20.510Z,3124.00
2018-12-17T09:40:20.504Z,3260.00
2018-12-17T09:41:20.494Z,3208.00
2018-12-17T09:42:20.481Z,3112.00
2018-12-17T09:43:20.463Z,3144.00
2018-12-17T09:44:20.457Z,3100.00
2018-12-17T09:45:20.441Z,2988.00
2018-12-17T09:46:20.431Z,2920.00
2018-12-17T09:47:20.418Z,2836.00
2018-12-17T09:48:20.406Z,2812.00
2018-12-17T09:49:20.395Z,2948.00
2018-12-17T09:50:20.385Z,3124.00
2018-12-17T09:51:20.373Z,3236.00
2018-12-17T09:52:20.362Z,3344.00
2018-12-17T09:53:20.350Z,3548.00
2018-12-17T09:54:20.360Z,3808.00
2018-12-17T09:55:20.326Z,3992.00
2018-12-17T09:56:20.315Z,4228.00
2018-12-17T09:57:20.303Z,4160.00
2018-12-17T09:58:20.293Z,3940.00
2018-12-17T09:59:20.285Z,3760.00
2018-12-17T10:00:25.454Z,3624.00
2018-12-17T10:01:20.257Z,3668.00
2018-12-17T10:02:20.245Z,3780.00
2018-12-17T10:03:20.239Z,3768.00
2018-12-17T10:04:20.232Z,3724.00
2018-12-17T10:05:20.214Z,3772.00
2018-12-17T10:06:20.201Z,3728.00
2018-12-17T10:07:20.188Z,3576.00
2018-12-17T10:08:20.177Z,3572.00
2018-12-17T10:09:20.169Z,3580.00
2018-12-17T10:10:20.154Z,3664.00
2018-12-17T10:11:20.148Z,3632.00
2018-12-17T10:12:20.133Z,3496.00
2018-12-17T10:13:20.123Z,3392.00
2018-12-17T10:14:20.107Z,3504.00
2018-12-17T10:15:20.098Z,3768.00
2018-12-17T10:16:20.094Z,3856.00
2018-12-17T10:17:20.074Z,4012.00
2018-12-17T10:18:20.068Z,4064.00
2018-12-17T10:19:20.051Z,3784.00
2018-12-17T10:20:20.042Z,3580.00
2018-12-17T10:21:20.029Z,3580.00
2018-12-17T10:22:20.020Z,3520.00
2018-12-17T10:23:20.008Z,3404.00
2018-12-17T10:24:19.995Z,3368.00
2018-12-17T10:25:19.984Z,3664.00
2018-12-17T10:26:19.979Z,4112.00
2018-12-17T10:27:19.972Z,4032.00
2018-12-17T10:28:19.953Z,3400.00
2018-12-17T10:29:19.938Z,3080.00
2018-12-17T10:30:19.931Z,3064.00
2018-12-17T10:31:19.917Z,3296.00
2018-12-17T10:32:19.907Z,3024.00
2018-12-17T10:33:19.897Z,2940.00
2018-12-17T10:34:19.891Z,2808.00
2018-12-17T10:35:19.873Z,2648.00
2018-12-17T10:36:19.860Z,2720.00
2018-12-17T10:37:19.863Z,2748.00
2018-12-17T10:38:19.842Z,2692.00
2018-12-17T10:39:19.826Z,2744.00
2018-12-17T10:40:19.815Z,2916.00
2018-12-17T10:41:19.812Z,2980.00
2018-12-17T10:42:19.792Z,3124.00
2018-12-17T10:43:19.782Z,3140.00
2018-12-17T10:44:19.769Z,3028.00
2018-12-17T10:45:19.759Z,2920.00
2018-12-17T10:46:19.746Z,2944.00
2018-12-17T10:47:19.735Z,3036.00
2018-12-17T10:48:19.730Z,3044.00
2018-12-17T10:49:19.717Z,3004.00
2018-12-17T10:50:19.708Z,2932.00
2018-12-17T10:51:19.690Z,2764.00
2018-12-17T10:52:19.686Z,2676.00
2018-12-17T10:53:19.674Z,2700.00
2018-12-17T10:54:19.656Z,2740.00
2018-12-17T10:55:19.652Z,2876.00
2018-12-17T10:56:19.644Z,3032.00
2018-12-17T10:57:19.630Z,3204.00
2018-12-17T10:58:19.622Z,3388.00
2018-12-17T10:59:19.602Z,3288.00
2018-12-17T11:00:19.589Z,3004.00
2018-12-17T11:01:19.588Z,2756.00
2018-12-17T11:02:19.569Z,2552.00
2018-12-17T11:03:19.563Z,2448.00
2018-12-17T11:04:19.548Z,2428.00
2018-12-17T11:05:19.534Z,2540.00
2018-12-17T11:06:19.523Z,2668.00
2018-12-17T11:07:19.516Z,2824.00
2018-12-17T11:08:19.499Z,2888.00
2018-12-17T11:09:19.491Z,2828.00
2018-12-17T11:10:19.479Z,2812.00
2018-12-17T11:11:19.466Z,2748.00
2018-12-17T11:12:19.457Z,2644.00
2018-12-17T11:13:19.448Z,2732.00
2018-12-17T11:14:19.432Z,2904.00
2018-12-17T11:15:19.428Z,2916.00
2018-12-17T11:16:19.409Z,2828.00
2018-12-17T11:17:19.399Z,2944.00
2018-12-17T11:18:19.389Z,3156.00
2018-12-17T11:19:19.377Z,3252.00
2018-12-17T11:20:19.367Z,3288.00
2018-12-17T11:21:19.355Z,3356.00
2018-12-17T11:22:19.343Z,3344.00
2018-12-17T11:23:19.332Z,3272.00
2018-12-17T11:24:19.330Z,3360.00
2018-12-17T11:25:19.315Z,3712.00
2018-12-17T11:26:19.298Z,4056.00
2018-12-17T11:27:19.286Z,4228.00
2018-12-17T11:28:19.275Z,3948.00
2018-12-17T11:29:19.267Z,3784.00
2018-12-17T11:30:19.254Z,3912.00
2018-12-17T11:31:19.244Z,3924.00
2018-12-17T11:32:19.245Z,3748.00
2018-12-17T11:33:19.222Z,3468.00
2018-12-17T11:34:19.210Z,3188.00
2018-12-17T11:35:19.202Z,3100.00
2018-12-17T11:36:19.187Z,3104.00
2018-12-17T11:37:19.180Z,3020.00
2018-12-17T11:38:19.165Z,3096.00
2018-12-17T11:39:19.154Z,3328.00
2018-12-17T11:40:19.143Z,3436.00
2018-12-17T11:41:19.131Z,3352.00
2018-12-17T11:42:19.119Z,3268.00
2018-12-17T11:43:19.113Z,3352.00
2018-12-17T11:44:19.106Z,3344.00
2018-12-17T11:45:19.092Z,3260.00
2018-12-17T11:46:19.075Z,3180.00
2018-12-17T11:47:19.070Z,3208.00
2018-12-17T11:48:19.058Z,3316.00
2018-12-17T11:49:19.047Z,3324.00
2018-12-17T11:50:19.037Z,3252.00
2018-12-17T11:51:19.023Z,3252.00
2018-12-17T11:52:19.008Z,3332.00
2018-12-17T11:53:18.996Z,3544.00
2018-12-17T11:54:18.986Z,4048.00
2018-12-17T11:55:18.973Z,5164.00
2018-12-17T11:56:18.966Z,5808.00
2018-12-17T11:57:18.950Z,6640.00
2018-12-17T11:58:18.942Z,7412.00
2018-12-17T11:59:18.941Z,7436.00
2018-12-17T12:00:18.946Z,7264.00
2018-12-17T12:01:18.947Z,6508.00
2018-12-17T12:02:18.951Z,5732.00
2018-12-17T12:03:18.892Z,4964.00
2018-12-17T12:04:18.904Z,4540.00
2018-12-17T12:05:18.898Z,4384.00
2018-12-17T12:06:18.900Z,4356.00
2018-12-17T12:07:18.839Z,4348.00
2018-12-17T12:08:18.827Z,4408.00
2018-12-17T12:09:18.816Z,4488.00
2018-12-17T12:10:18.805Z,4500.00
2018-12-17T12:11:18.800Z,4240.00
2018-12-17T12:12:18.788Z,4056.00
2018-12-17T12:13:18.771Z,3920.00
2018-12-17T12:14:18.760Z,3732.00
2018-12-17T12:15:18.755Z,3700.00
2018-12-17T12:16:18.740Z,3764.00
2018-12-17T12:17:18.726Z,4000.00
2018-12-17T12:18:18.713Z,4144.00
2018-12-17T12:19:18.703Z,4120.00
2018-12-17T12:20:18.691Z,4012.00
2018-12-17T12:21:18.679Z,3760.00
2018-12-17T12:22:18.668Z,3588.00
2018-12-17T12:23:18.656Z,3580.00
2018-12-17T12:24:18.645Z,3472.00
2018-12-17T12:25:18.634Z,3212.00
2018-12-17T12:26:18.624Z,3064.00
2018-12-17T12:27:18.610Z,3212.00
2018-12-17T12:28:18.600Z,3192.00
2018-12-17T12:29:18.587Z,3116.00
2018-12-17T12:30:18.579Z,3008.00
2018-12-17T12:31:18.566Z,2896.00
2018-12-17T12:32:18.560Z,2880.00
2018-12-17T12:33:18.541Z,2976.00
2018-12-17T12:34:18.533Z,2948.00
2018-12-17T12:35:18.521Z,2904.00
2018-12-17T12:36:18.509Z,2984.00
2018-12-17T12:37:18.498Z,3048.00
2018-12-17T12:38:18.486Z,2960.00
2018-12-17T12:39:18.475Z,2816.00
2018-12-17T12:40:18.468Z,2668.00
2018-12-17T12:41:18.461Z,2556.00
2018-12-17T12:42:18.443Z,2588.00
2018-12-17T12:43:18.435Z,2636.00
2018-12-17T12:44:18.419Z,2564.00
2018-12-17T12:45:18.410Z,2540.00